createdAt,value
2023-05-13T00:02:03.218Z,18.22
2023-05-13T00:04:30.268Z,18.19
2023-05-13T00:06:57.414Z,18.19
2023-05-13T00:09:24.567Z,18.20
2023-05-13T00:11:51.715Z,18.20
2023-05-13T00:14:18.967Z,18.20
2023-05-13T00:16:46.055Z,18.21
2023-05-13T00:19:13.243Z,18.20
2023-05-13T00:21:40.724Z,18.16
2023-05-13T00:24:07.852Z,18.16
2023-05-13T00:26:34.815Z,18.16
2023-05-13T00:29:01.759Z,18.14
2023-05-13T00:31:29.296Z,18.13
2023-05-13T00:33:56.673Z,18.11
2023-05-13T00:36:24.180Z,18.11
2023-05-13T00:38:51.194Z,18.09
2023-05-13T00:41:18.385Z,18.10
2023-05-13T00:43:47.117Z,18.09
2023-05-13T00:46:15.072Z,18.10
2023-05-13T00:48:42.234Z,18.10
2023-05-13T00:51:09.057Z,18.09
2023-05-13T00:53:35.945Z,18.09
2023-05-13T00:56:03.169Z,18.09
2023-05-13T00:58:30.628Z,18.07
2023-05-13T01:01:13.057Z,18.05
2023-05-13T01:03:58.007Z,18.04
2023-05-13T01:06:48.809Z,18.03
2023-05-13T01:09:25.891Z,18.01
2023-05-13T01:11:53.338Z,18.00
2023-05-13T01:14:25.927Z,18.00
2023-05-13T01:16:58.060Z,17.98
2023-05-13T01:19:32.727Z,17.96
2023-05-13T01:21:59.654Z,17.96
2023-05-13T01:24:27.057Z,17.96
2023-05-13T01:26:54.360Z,17.96
2023-05-13T01:29:21.919Z,17.96
2023-05-13T01:31:49.789Z,17.96
2023-05-13T01:34:19.184Z,17.95
2023-05-13T01:36:46.134Z,17.95
2023-05-13T01:39:13.389Z,17.94
2023-05-13T01:41:40.741Z,17.95
2023-05-13T01:44:08.294Z,17.94
2023-05-13T01:46:37.014Z,17.93
2023-05-13T01:49:04.544Z,17.91
2023-05-13T01:51:31.690Z,17.89
2023-05-13T01:53:58.737Z,17.87
2023-05-13T01:56:26.295Z,17.84
2023-05-13T01:58:53.543Z,17.81
2023-05-13T02:01:22.431Z,17.78
2023-05-13T02:03:50.462Z,17.75
2023-05-13T02:06:17.756Z,17.72
2023-05-13T02:08:44.813Z,17.68
2023-05-13T02:11:11.854Z,17.65
2023-05-13T02:13:39.111Z,17.61
2023-05-13T02:16:06.058Z,17.59
2023-05-13T02:18:33.289Z,17.56
2023-05-13T02:21:00.451Z,17.51
2023-05-13T02:23:29.242Z,17.51
2023-05-13T02:25:56.416Z,17.50
2023-05-13T02:28:24.052Z,17.48
2023-05-13T02:30:51.197Z,17.46
2023-05-13T02:33:18.348Z,17.45
2023-05-13T02:35:45.732Z,17.43
2023-05-13T02:38:13.056Z,17.41
2023-05-13T02:40:40.103Z,17.40
2023-05-13T02:43:07.360Z,17.37
2023-05-13T02:45:46.833Z,17.36
2023-05-13T02:48:14.369Z,17.34
2023-05-13T02:50:41.706Z,17.31
2023-05-13T02:53:09.471Z,17.29
2023-05-13T02:55:38.072Z,17.29
2023-05-13T02:58:05.513Z,17.27
2023-05-13T03:00:32.598Z,17.27
2023-05-13T03:02:59.909Z,17.26
2023-05-13T03:05:29.204Z,17.24
2023-05-13T03:07:57.903Z,17.23
2023-05-13T03:10:26.180Z,17.23
2023-05-13T03:12:53.440Z,17.23
2023-05-13T03:15:20.781Z,17.24
2023-05-13T03:17:47.919Z,17.25
2023-05-13T03:20:15.080Z,17.26
2023-05-13T03:22:42.661Z,17.28
2023-05-13T03:25:11.116Z,17.29
2023-05-13T03:27:44.409Z,17.32
2023-05-13T03:30:12.070Z,17.34
2023-05-13T03:32:53.754Z,17.36
2023-05-13T03:35:20.917Z,17.37
2023-05-13T03:37:48.059Z,17.38
2023-05-13T03:40:16.026Z,17.40
2023-05-13T03:42:43.175Z,17.41
2023-05-13T03:45:11.256Z,17.43
2023-05-13T03:47:39.291Z,17.44
2023-05-13T03:50:08.823Z,17.45
2023-05-13T03:52:40.482Z,17.45
2023-05-13T03:55:08.041Z,17.46
2023-05-13T03:57:35.705Z,17.47
2023-05-13T04:00:03.606Z,17.48
2023-05-13T04:02:42.192Z,17.50
2023-05-13T04:05:09.514Z,17.51
2023-05-13T04:07:37.652Z,17.52
2023-05-13T04:10:05.483Z,17.54
2023-05-13T04:12:33.035Z,17.56
2023-05-13T04:15:01.128Z,17.59
2023-05-13T04:17:28.506Z,17.62
2023-05-13T04:19:55.711Z,17.66
2023-05-13T04:22:23.988Z,17.72
2023-05-13T04:24:55.851Z,17.77
2023-05-13T04:27:23.681Z,17.82
2023-05-13T04:29:53.165Z,17.87
2023-05-13T04:32:23.216Z,17.93
2023-05-13T04:34:53.863Z,17.98
2023-05-13T04:37:21.121Z,18.03
2023-05-13T04:39:49.293Z,18.07
2023-05-13T04:42:17.679Z,18.12
2023-05-13T04:44:45.025Z,18.17
2023-05-13T04:47:12.077Z,18.22
2023-05-13T04:49:39.218Z,18.27
2023-05-13T04:52:06.705Z,18.32
2023-05-13T04:54:35.570Z,18.37
2023-05-13T04:57:03.039Z,18.42
2023-05-13T04:59:31.103Z,18.47
2023-05-13T05:01:58.396Z,18.54
2023-05-13T05:04:26.626Z,18.62
2023-05-13T05:06:53.901Z,18.72
2023-05-13T05:09:22.166Z,18.83
2023-05-13T05:11:51.041Z,18.94
2023-05-13T05:14:20.241Z,19.05
2023-05-13T05:16:48.275Z,19.17
2023-05-13T05:19:15.603Z,19.30
2023-05-13T05:21:43.052Z,19.42
2023-05-13T05:24:10.579Z,19.53
2023-05-13T05:26:37.727Z,19.63
2023-05-13T05:29:05.896Z,19.72
2023-05-13T05:34:57.747Z,20.09
2023-05-13T05:37:24.893Z,20.17
2023-05-13T05:39:51.943Z,20.28
2023-05-13T05:42:18.985Z,20.39
2023-05-13T05:44:46.350Z,20.47
2023-05-13T05:47:13.610Z,20.55
2023-05-13T05:49:40.744Z,20.67
2023-05-13T05:52:07.890Z,20.79
2023-05-13T05:54:34.937Z,20.85
2023-05-13T05:57:02.189Z,20.88
2023-05-13T05:59:29.447Z,20.92
2023-05-13T06:01:56.548Z,21.05
2023-05-13T06:04:25.146Z,21.17
2023-05-13T06:06:52.568Z,21.27
2023-05-13T06:09:20.287Z,21.33
2023-05-13T06:11:49.283Z,21.40
2023-05-13T06:14:17.456Z,21.53
2023-05-13T06:16:44.508Z,21.69
2023-05-13T06:19:11.735Z,21.82
2023-05-13T06:21:38.939Z,21.93
2023-05-13T06:24:06.976Z,22.00
2023-05-13T06:26:33.946Z,22.05
2023-05-13T06:29:01.072Z,22.12
2023-05-13T06:31:28.144Z,22.12
2023-05-13T06:33:55.279Z,22.08
2023-05-13T06:36:24.929Z,22.02
2023-05-13T06:38:53.361Z,21.98
2023-05-13T06:41:22.968Z,21.96
2023-05-13T06:43:51.547Z,22.00
2023-05-13T06:46:22.738Z,22.11
2023-05-13T06:48:52.616Z,22.31
2023-05-13T06:51:19.852Z,22.48
2023-05-13T06:53:47.618Z,22.59
2023-05-13T06:56:14.663Z,22.68
2023-05-13T06:58:41.711Z,22.75
2023-05-13T07:01:08.794Z,22.84
2023-05-13T07:03:36.634Z,22.95
2023-05-13T07:06:04.814Z,23.01
2023-05-13T07:08:31.841Z,23.11
2023-05-13T07:10:58.897Z,23.25
2023-05-13T07:13:26.038Z,23.34
2023-05-13T07:15:53.286Z,23.44
2023-05-13T07:18:20.410Z,23.53
2023-05-13T07:20:47.584Z,23.60
2023-05-13T07:23:14.633Z,23.70
2023-05-13T07:25:41.795Z,23.73
2023-05-13T07:28:09.648Z,23.75
2023-05-13T07:30:36.722Z,23.74
2023-05-13T07:33:03.995Z,23.76
2023-05-13T07:35:31.407Z,23.71
2023-05-13T07:37:58.455Z,23.63
2023-05-13T07:40:25.797Z,23.60
2023-05-13T07:42:52.881Z,23.61
2023-05-13T07:45:20.070Z,23.62
2023-05-13T07:47:47.294Z,23.66
2023-05-13T07:50:14.510Z,23.66
2023-05-13T07:52:42.064Z,23.64
2023-05-13T07:55:11.000Z,23.70
2023-05-13T07:57:38.115Z,23.74
2023-05-13T08:00:06.098Z,23.70
2023-05-13T08:02:40.086Z,23.68
2023-05-13T08:05:07.930Z,23.67
2023-05-13T08:07:35.105Z,23.70
2023-05-13T08:10:02.151Z,23.79
2023-05-13T08:12:29.204Z,23.89
2023-05-13T08:14:56.243Z,24.02
2023-05-13T08:17:23.572Z,24.16
2023-05-13T08:19:50.757Z,24.32
2023-05-13T08:22:17.747Z,24.45
2023-05-13T08:24:44.860Z,24.55
2023-05-13T08:27:13.091Z,24.63
2023-05-13T08:29:42.217Z,24.70
2023-05-13T08:32:09.475Z,24.78
2023-05-13T08:34:37.055Z,24.83
2023-05-13T08:37:04.582Z,24.86
2023-05-13T08:39:31.728Z,24.90
2023-05-13T08:41:58.775Z,24.93
2023-05-13T08:44:29.004Z,24.91
2023-05-13T08:47:22.474Z,24.92
2023-05-13T08:49:50.027Z,24.95
2023-05-13T08:52:18.760Z,24.97
2023-05-13T08:54:46.085Z,24.97
2023-05-13T08:57:13.147Z,24.99
2023-05-13T08:59:40.185Z,24.99
2023-05-13T09:02:07.307Z,25.02
2023-05-13T09:04:37.918Z,25.05
2023-05-13T09:07:08.288Z,25.06
2023-05-13T09:09:36.029Z,25.03
2023-05-13T09:12:03.788Z,25.02
2023-05-13T09:14:34.422Z,25.04
2023-05-13T09:17:01.899Z,25.08
2023-05-13T09:19:29.080Z,25.10
2023-05-13T09:21:57.402Z,25.12
2023-05-13T09:24:24.552Z,25.12
2023-05-13T09:26:51.939Z,25.12
2023-05-13T09:29:31.147Z,25.12
2023-05-13T09:32:01.007Z,25.12
2023-05-13T09:34:30.864Z,25.05
2023-05-13T09:36:57.888Z,24.96
2023-05-13T09:39:25.057Z,24.88
2023-05-13T09:41:53.031Z,24.81
2023-05-13T09:44:21.645Z,24.78
2023-05-13T09:46:48.796Z,24.80
2023-05-13T09:49:15.909Z,24.87
2023-05-13T09:51:44.180Z,24.97
2023-05-13T09:54:12.596Z,25.06
2023-05-13T09:56:40.041Z,25.12
2023-05-13T09:59:07.009Z,25.16
2023-05-13T10:01:35.383Z,25.16
2023-05-13T10:04:03.490Z,25.14
2023-05-13T10:06:30.771Z,25.13
2023-05-13T10:08:59.024Z,25.15
2023-05-13T10:11:26.029Z,25.15
2023-05-13T10:13:56.188Z,25.13
2023-05-13T10:16:24.151Z,25.12
2023-05-13T10:18:52.096Z,25.09
2023-05-13T10:21:22.172Z,25.04
2023-05-13T10:23:52.113Z,24.97
2023-05-13T10:26:20.467Z,24.87
2023-05-13T10:28:48.656Z,24.81
2023-05-13T10:31:16.629Z,24.81
2023-05-13T10:33:43.847Z,24.83
2023-05-13T10:36:21.545Z,24.88
2023-05-13T10:39:16.570Z,24.93
2023-05-13T10:42:08.784Z,25.00
2023-05-13T10:44:35.947Z,25.06
2023-05-13T10:47:03.287Z,25.10
2023-05-13T10:49:34.886Z,25.16
2023-05-13T10:52:06.401Z,25.20
2023-05-13T10:54:38.978Z,25.24
2023-05-13T10:57:06.527Z,25.27
2023-05-13T10:59:35.616Z,25.28
2023-05-13T11:02:04.186Z,25.26
2023-05-13T11:04:31.453Z,25.24
2023-05-13T11:06:59.119Z,25.23
2023-05-13T11:09:26.576Z,25.24
2023-05-13T11:11:54.449Z,25.27
2023-05-13T11:14:22.720Z,25.29
2023-05-13T11:17:02.195Z,25.32
2023-05-13T11:19:30.819Z,25.36
2023-05-13T11:21:59.358Z,25.38
2023-05-13T11:24:26.552Z,25.96
2023-05-13T11:26:56.649Z,26.51
2023-05-13T11:29:32.268Z,26.52
2023-05-13T11:32:01.208Z,27.21
2023-05-13T11:34:28.596Z,28.14
2023-05-13T11:37:05.051Z,28.62
2023-05-13T11:39:32.612Z,29.14
2023-05-13T11:42:02.047Z,29.55
2023-05-13T11:44:29.073Z,29.92
2023-05-13T11:46:56.530Z,30.27
2023-05-13T11:49:33.838Z,30.40
2023-05-13T11:52:02.504Z,30.40
2023-05-13T11:54:29.640Z,30.46
2023-05-13T11:56:56.804Z,30.68
2023-05-13T11:59:24.285Z,30.70
2023-05-13T12:02:01.805Z,30.93
2023-05-13T12:04:32.090Z,30.94
2023-05-13T12:06:59.315Z,31.18
2023-05-13T12:09:26.377Z,31.14
2023-05-13T12:11:54.129Z,31.22
2023-05-13T12:14:21.202Z,31.11
2023-05-13T12:16:48.607Z,31.54
2023-05-13T12:19:15.946Z,30.37
2023-05-13T12:21:43.152Z,26.42
2023-05-13T12:24:20.745Z,25.69
2023-05-13T12:26:48.186Z,25.46
2023-05-13T12:29:15.334Z,25.34
2023-05-13T12:31:43.885Z,25.24
2023-05-13T12:34:11.307Z,25.17
2023-05-13T12:36:39.131Z,25.11
2023-05-13T12:39:07.824Z,25.05
2023-05-13T12:41:36.207Z,25.02
2023-05-13T12:44:10.516Z,24.99
2023-05-13T12:46:38.017Z,24.97
2023-05-13T12:49:05.634Z,24.95
2023-05-13T12:51:35.583Z,24.94
2023-05-13T12:54:02.575Z,24.94
2023-05-13T12:56:29.637Z,24.95
2023-05-13T12:58:56.900Z,24.97
2023-05-13T13:01:23.985Z,24.99
2023-05-13T13:03:51.149Z,25.03
2023-05-13T13:06:18.338Z,25.06
2023-05-13T13:08:46.033Z,25.08
2023-05-13T13:11:19.063Z,25.11
2023-05-13T13:13:46.688Z,25.14
2023-05-13T13:16:14.343Z,25.16
2023-05-13T13:18:42.056Z,25.18
2023-05-13T13:21:10.567Z,25.18
2023-05-13T13:23:37.729Z,25.20
2023-05-13T13:26:04.864Z,25.19
2023-05-13T13:28:32.031Z,25.18
2023-05-13T13:31:00.309Z,25.16
2023-05-13T13:33:27.739Z,25.11
2023-05-13T13:35:54.987Z,25.05
2023-05-13T13:38:37.188Z,25.00
2023-05-13T13:41:04.242Z,24.92
2023-05-13T13:43:31.387Z,24.87
2023-05-13T13:45:58.769Z,24.81
2023-05-13T13:48:26.098Z,24.77
2023-05-13T13:50:54.373Z,24.71
2023-05-13T13:53:22.034Z,24.65
2023-05-13T13:55:49.181Z,24.59
2023-05-13T13:58:16.541Z,24.54
2023-05-13T14:00:43.589Z,24.48
2023-05-13T14:03:10.734Z,24.42
2023-05-13T14:05:37.984Z,24.36
2023-05-13T14:08:05.951Z,24.29
2023-05-13T14:10:33.203Z,24.21
2023-05-13T14:13:00.249Z,24.14
2023-05-13T14:15:29.140Z,24.07
2023-05-13T14:17:56.642Z,24.01
2023-05-13T14:20:25.139Z,23.94
2023-05-13T14:22:52.435Z,23.88
2023-05-13T14:25:19.481Z,23.83
2023-05-13T14:27:46.533Z,23.77
2023-05-13T14:30:13.683Z,23.72
2023-05-13T14:32:45.287Z,23.68
2023-05-13T14:35:13.128Z,23.63
2023-05-13T14:37:40.870Z,23.59
2023-05-13T14:40:09.721Z,23.55
2023-05-13T14:42:36.752Z,23.52
2023-05-13T14:45:04.665Z,23.49
2023-05-13T14:47:32.202Z,23.46
2023-05-13T14:49:59.306Z,23.44
2023-05-13T14:52:26.324Z,23.42
2023-05-13T14:54:54.382Z,23.40
2023-05-13T14:57:21.530Z,23.38
2023-05-13T14:59:48.695Z,23.39
2023-05-13T15:02:17.758Z,23.38
2023-05-13T15:04:44.921Z,23.37
2023-05-13T15:07:12.030Z,23.36
2023-05-13T15:09:39.220Z,23.34
2023-05-13T15:12:07.507Z,23.32
2023-05-13T15:14:34.463Z,23.30
2023-05-13T15:17:01.571Z,23.30
2023-05-13T15:19:28.853Z,23.29
2023-05-13T15:21:56.305Z,23.28
2023-05-13T15:24:23.554Z,23.25
2023-05-13T15:26:50.908Z,23.24
2023-05-13T15:29:18.062Z,23.22
2023-05-13T15:31:45.212Z,23.20
2023-05-13T15:34:12.370Z,23.18
2023-05-13T15:36:39.611Z,23.10
2023-05-13T15:39:06.880Z,23.10
2023-05-13T15:41:33.910Z,23.09
2023-05-13T15:44:00.962Z,23.08
2023-05-13T15:46:28.188Z,23.06
2023-05-13T15:48:55.671Z,23.04
2023-05-13T15:51:23.017Z,23.03
2023-05-13T15:53:50.063Z,23.02
2023-05-13T15:56:17.114Z,23.00
2023-05-13T15:58:44.261Z,22.98
2023-05-13T16:01:11.573Z,22.96
2023-05-13T16:03:38.868Z,22.93
2023-05-13T16:06:06.119Z,22.91
2023-05-13T16:08:33.177Z,22.89
2023-05-13T16:11:00.522Z,22.87
2023-05-13T16:13:27.780Z,22.84
2023-05-13T16:15:54.870Z,22.82
2023-05-13T16:18:22.171Z,22.80
2023-05-13T16:20:49.224Z,22.77
2023-05-13T16:23:16.471Z,22.75
2023-05-13T16:25:43.840Z,22.73
2023-05-13T16:28:10.982Z,22.70
2023-05-13T16:30:38.790Z,22.67
2023-05-13T16:33:06.029Z,22.63
2023-05-13T16:35:33.563Z,22.61
2023-05-13T16:38:00.809Z,22.58
2023-05-13T16:40:28.001Z,22.54
2023-05-13T16:42:57.111Z,22.52
2023-05-13T16:45:26.445Z,22.48
2023-05-13T16:47:53.977Z,22.44
2023-05-13T16:50:21.680Z,22.41
2023-05-13T16:52:49.020Z,22.37
2023-05-13T16:55:16.173Z,22.33
2023-05-13T16:57:43.682Z,22.28
2023-05-13T17:00:11.842Z,22.24
2023-05-13T17:02:39.211Z,22.19
2023-05-13T17:05:06.928Z,22.14
2023-05-13T17:07:33.977Z,22.09
2023-05-13T17:10:01.011Z,22.03
2023-05-13T17:12:28.366Z,21.98
2023-05-13T17:14:56.040Z,21.92
2023-05-13T17:17:23.104Z,21.87
2023-05-13T17:19:50.163Z,21.81
2023-05-13T17:22:17.272Z,21.76
2023-05-13T17:24:44.420Z,21.70
2023-05-13T17:27:11.677Z,21.65
2023-05-13T17:29:38.726Z,21.60
2023-05-13T17:32:06.787Z,21.53
2023-05-13T17:34:33.853Z,21.48
2023-05-13T17:37:01.022Z,21.43
2023-05-13T17:39:28.570Z,21.39
2023-05-13T17:41:55.905Z,21.34
2023-05-13T17:44:24.204Z,21.29
2023-05-13T17:46:51.230Z,21.23
2023-05-13T17:49:18.553Z,21.18
2023-05-13T17:51:46.142Z,21.10
2023-05-13T17:54:14.362Z,21.05
2023-05-13T17:56:41.410Z,21.01
2023-05-13T17:59:08.505Z,20.96
2023-05-13T18:01:35.697Z,20.91
2023-05-13T18:04:02.904Z,20.89
2023-05-13T18:06:29.953Z,20.85
2023-05-13T18:08:57.083Z,20.79
2023-05-13T18:11:24.154Z,20.74
2023-05-13T18:13:51.341Z,20.68
2023-05-13T18:16:19.544Z,20.64
2023-05-13T18:18:49.001Z,20.60
2023-05-13T18:21:16.429Z,20.56
2023-05-13T18:23:46.163Z,20.52
2023-05-13T18:26:13.596Z,20.48
2023-05-13T18:28:41.674Z,20.46
2023-05-13T18:31:08.752Z,20.42
2023-05-13T18:33:35.711Z,20.39
2023-05-13T18:36:02.814Z,20.36
2023-05-13T18:38:29.974Z,20.33
2023-05-13T18:41:01.823Z,20.30
2023-05-13T18:43:30.312Z,20.26
2023-05-13T18:45:58.155Z,20.24
2023-05-13T18:48:25.540Z,20.21
2023-05-13T18:54:16.451Z,20.17
2023-05-13T18:56:44.229Z,20.14
2023-05-13T18:59:11.568Z,20.12
2023-05-13T19:01:38.681Z,20.10
2023-05-13T19:04:05.937Z,20.08
2023-05-13T19:06:36.414Z,20.05
2023-05-13T19:09:03.568Z,20.02
2023-05-13T19:11:31.305Z,20.00
2023-05-13T19:13:58.768Z,19.98
2023-05-13T19:16:26.052Z,19.95
2023-05-13T19:18:53.730Z,19.92
2023-05-13T19:21:23.589Z,19.88
2023-05-13T19:23:50.947Z,19.85
2023-05-13T19:26:18.035Z,19.83
2023-05-13T19:28:45.968Z,19.80
2023-05-13T19:31:13.340Z,19.76
2023-05-13T19:33:41.593Z,19.72
2023-05-13T19:36:10.382Z,19.69
2023-05-13T19:38:37.424Z,19.66
2023-05-13T19:41:04.478Z,19.63
2023-05-13T19:43:31.738Z,19.60
2023-05-13T19:45:58.869Z,19.58
2023-05-13T19:48:27.704Z,19.55
2023-05-13T19:50:58.086Z,19.53
2023-05-13T19:53:25.237Z,19.49
2023-05-13T19:55:52.586Z,19.46
2023-05-13T19:58:19.638Z,19.43
2023-05-13T20:00:46.684Z,19.41
2023-05-13T20:03:13.934Z,19.39
2023-05-13T20:05:43.952Z,19.36
2023-05-13T20:08:11.321Z,19.33
2023-05-13T20:10:40.615Z,19.30
2023-05-13T20:13:08.164Z,19.27
2023-05-13T20:15:35.218Z,19.26
2023-05-13T20:18:02.280Z,19.23
2023-05-13T20:20:29.587Z,19.22
2023-05-13T20:22:56.592Z,19.20
2023-05-13T20:25:23.618Z,19.18
2023-05-13T20:27:50.961Z,19.17
2023-05-13T20:30:18.431Z,19.15
2023-05-13T20:32:46.002Z,19.12
2023-05-13T20:35:13.330Z,19.11
2023-05-13T20:37:40.694Z,19.09
2023-05-13T20:40:08.577Z,19.06
2023-05-13T20:42:35.603Z,19.01
2023-05-13T20:45:04.170Z,18.98
2023-05-13T20:47:31.638Z,18.96
2023-05-13T20:49:58.687Z,18.94
2023-05-13T20:52:26.857Z,18.93
2023-05-13T20:54:53.909Z,18.90
2023-05-13T20:57:21.026Z,18.87
2023-05-13T20:59:48.101Z,18.83
2023-05-13T21:02:15.152Z,18.81
2023-05-13T21:04:42.302Z,18.82
2023-05-13T21:07:09.458Z,18.81
2023-05-13T21:09:36.803Z,18.80
2023-05-13T21:12:04.495Z,18.80
2023-05-13T21:14:31.532Z,18.80
2023-05-13T21:16:58.606Z,18.80
2023-05-13T21:19:25.703Z,18.79
2023-05-13T21:21:53.005Z,18.79
2023-05-13T21:24:20.103Z,18.78
2023-05-13T21:26:47.252Z,18.77
2023-05-13T21:29:14.553Z,18.76
2023-05-13T21:31:42.804Z,18.75
2023-05-13T21:34:10.236Z,18.73
2023-05-13T21:36:39.229Z,18.72
2023-05-13T21:39:07.307Z,18.70
2023-05-13T21:41:34.390Z,18.68
2023-05-13T21:44:01.597Z,18.66
2023-05-13T21:46:28.847Z,18.66
2023-05-13T21:48:56.310Z,18.65
2023-05-13T21:51:23.463Z,18.64
2023-05-13T21:53:50.602Z,18.64
2023-05-13T21:56:17.652Z,18.63
2023-05-13T21:58:44.903Z,18.63
2023-05-13T22:01:11.991Z,18.62
2023-05-13T22:03:39.335Z,18.62
2023-05-13T22:06:06.811Z,18.62
2023-05-13T22:08:33.909Z,18.62
2023-05-13T22:11:01.777Z,18.62
2023-05-13T22:13:28.825Z,18.63
2023-05-13T22:15:55.934Z,18.62
2023-05-13T22:18:23.801Z,18.63
2023-05-13T22:20:51.368Z,18.61
2023-05-13T22:23:18.649Z,18.59
2023-05-13T22:25:45.904Z,18.59
2023-05-13T22:28:13.362Z,18.61
2023-05-13T22:30:40.507Z,18.63
2023-05-13T22:33:07.609Z,18.64
2023-05-13T22:35:36.733Z,18.65
2023-05-13T22:38:04.524Z,18.64
2023-05-13T22:40:31.569Z,18.62
2023-05-13T22:42:58.611Z,18.62
2023-05-13T22:45:26.019Z,18.65
2023-05-13T22:47:53.525Z,18.63
2023-05-13T22:50:21.064Z,18.63
2023-05-13T22:52:48.336Z,18.63
2023-05-13T22:55:15.360Z,18.69
2023-05-13T22:57:42.430Z,18.75
2023-05-13T23:00:10.910Z,18.79
2023-05-13T23:02:37.993Z,18.81
2023-05-13T23:05:05.835Z,18.81
2023-05-13T23:07:32.870Z,18.82
2023-05-13T23:09:59.915Z,18.84
2023-05-13T23:12:27.473Z,18.87
2023-05-13T23:14:54.519Z,18.89
2023-05-13T23:17:21.796Z,18.91
2023-05-13T23:19:48.928Z,18.93
2023-05-13T23:22:15.996Z,18.95
2023-05-13T23:24:43.326Z,18.98
2023-05-13T23:27:10.372Z,18.99
2023-05-13T23:29:37.419Z,18.99
2023-05-13T23:32:06.671Z,19.00
2023-05-13T23:34:34.277Z,19.00
2023-05-13T23:37:01.628Z,19.01
2023-05-13T23:39:28.677Z,19.01
2023-05-13T23:41:55.838Z,19.02
2023-05-13T23:44:23.430Z,19.03
2023-05-13T23:46:50.919Z,19.03
2023-05-13T23:49:18.501Z,19.02
2023-05-13T23:51:45.756Z,19.02
2023-05-13T23:54:12.800Z,19.02
2023-05-13T23:56:39.849Z,19.03
2023-05-13T23:59:08.659Z,19.03
